Time;durP1;ratioP1;P1;durP2;ratioP2;P2;SDS_P1;SDS_P2;PMS_P1;PMS_P2;Temp;Humidity;BMP_temperature;BMP_pressure;BME280_temperature;BME280_humidity;BME280_pressure;Samples;Min_cycle;Max_cycle;Signal;HPM_P1;HPM_P2
2022/12/30 00:00:33;;;;;;;10.00;1.65;;;;;;;;;;5041102;28;20566;-75
2022/12/30 00:02:58;;;;;;;6.28;1.70;;;;;;;;;;5030972;28;20513;-76
2022/12/30 00:05:24;;;;;;;5.03;1.48;;;;;;;;;;5044980;28;20142;-76
2022/12/30 00:07:49;;;;;;;8.13;1.10;;;;;;;;;;5046362;28;20032;-76
2022/12/30 00:10:15;;;;;;;13.90;2.20;;;;;;;;;;5045033;28;20442;-76
2022/12/30 00:35:01;;;;;;;8.73;1.85;;;;;;;;;;5034107;28;20064;-76
2022/12/30 00:37:27;;;;;;;7.20;1.92;;;;;;;;;;5041855;28;20037;-76
2022/12/30 00:39:54;;;;;;;11.77;2.10;;;;;;;;;;5032140;28;20045;-76
2022/12/30 00:45:03;;;;;;;;;;;;;;;;;;5039396;28;20083;-76
2022/12/30 00:47:28;;;;;;;3.17;1.20;;;;;;;;;;5049987;28;19916;-76
2022/12/30 00:58:05;;;;;;;;;;;;;;;;;;5051336;28;20036;-76
2022/12/30 01:00:30;;;;;;;7.07;1.50;;;;;;;;;;5051860;28;19913;-75
2022/12/30 01:02:56;;;;;;;7.00;1.77;;;;;;;;;;5052146;28;20339;-76
2022/12/30 01:05:21;;;;;;;5.53;1.30;;;;;;;;;;5033483;28;20067;-76
2022/12/30 01:07:46;;;;;;;13.18;1.95;;;;;;;;;;5033582;28;20033;-76
2022/12/30 01:10:12;;;;;;;10.07;1.52;;;;;;;;;;5051554;28;20054;-75
2022/12/30 01:12:37;;;;;;;7.07;2.42;;;;;;;;;;5051200;28;20103;-76
2022/12/30 01:15:03;;;;;;;7.82;1.95;;;;;;;;;;5032492;28;20032;-75
2022/12/30 01:17:31;;;;;;;7.30;1.88;;;;;;;;;;5040750;28;20029;-75
2022/12/30 01:19:57;;;;;;;7.95;1.70;;;;;;;;;;5041626;28;20131;-75
2022/12/30 01:22:23;;;;;;;5.72;1.48;;;;;;;;;;5051002;28;20037;-75
2022/12/30 01:24:48;;;;;;;8.70;1.90;;;;;;;;;;5039342;28;20053;-76
2022/12/30 01:27:15;;;;;;;7.60;1.50;;;;;;;;;;5051578;28;20570;-76
2022/12/30 01:29:42;;;;;;;7.15;1.80;;;;;;;;;;5051482;28;20106;-76
2022/12/30 01:32:12;;;;;;;7.78;2.00;;;;;;;;;;5047350;28;20026;-76
2022/12/30 01:34:39;;;;;;;7.75;1.85;;;;;;;;;;5039037;28;20037;-75
2022/12/30 01:37:05;;;;;;;6.57;1.58;;;;;;;;;;5046249;28;20549;-76
2022/12/30 01:39:30;;;;;;;8.23;2.22;;;;;;;;;;5051565;28;20025;-76
2022/12/30 01:41:56;;;;;;;12.57;1.90;;;;;;;;;;5025071;28;20031;-76
2022/12/30 01:44:56;;;;;;;3.80;1.80;;;;;;;;;;5040374;28;20029;-76
2022/12/30 01:47:32;;;;;;;8.10;1.30;;;;;;;;;;5044854;28;21048;-75
2022/12/30 01:50:22;;;;;;;14.80;2.05;;;;;;;;;;5038415;28;20063;-76
2022/12/30 01:52:58;;;;;;;11.30;2.10;;;;;;;;;;5048466;28;20068;-76
2022/12/30 01:55:34;;;;;;;4.15;1.30;;;;;;;;;;5047781;28;20047;-75
2022/12/30 01:58:03;;;;;;;12.88;2.03;;;;;;;;;;5018906;28;20033;-76
2022/12/30 02:00:28;;;;;;;6.25;1.52;;;;;;;;;;5029527;28;20021;-76
2022/12/30 02:02:55;;;;;;;7.47;1.80;;;;;;;;;;5026456;28;20110;-76
2022/12/30 02:05:23;;;;;;;5.03;1.55;;;;;;;;;;5023342;28;20033;-75
2022/12/30 02:08:07;;;;;;;8.63;1.70;;;;;;;;;;5044900;28;20413;-76
2022/12/30 02:10:36;;;;;;;5.18;1.58;;;;;;;;;;5046735;28;20037;-76
2022/12/30 02:13:02;;;;;;;8.52;1.48;;;;;;;;;;5030646;28;20044;-75
2022/12/30 02:15:35;;;;;;;13.73;1.48;;;;;;;;;;5044542;28;20035;-75
2022/12/30 02:18:17;;;;;;;7.97;1.13;;;;;;;;;;5032984;28;20036;-75
2022/12/30 02:21:06;;;;;;;19.17;3.00;;;;;;;;;;5044351;28;20075;-76
2022/12/30 02:23:56;;;;;;;4.93;1.70;;;;;;;;;;5047675;28;20528;-75
2022/12/30 02:26:55;;;;;;;5.93;1.77;;;;;;;;;;5036158;28;20052;-76
2022/12/30 02:29:54;;;;;;;11.07;1.88;;;;;;;;;;5034602;28;20044;-75
2022/12/30 02:32:38;;;;;;;4.00;1.48;;;;;;;;;;5046572;28;20036;-76
2022/12/30 02:35:42;;;;;;;16.42;2.75;;;;;;;;;;5026005;28;20049;-76
2022/12/30 02:38:24;;;;;;;7.70;2.05;;;;;;;;;;4995521;28;20816;-76
2022/12/30 02:46:52;;;;;;;;;;;;;;;;;;5028825;28;20056;-75
2022/12/30 02:49:19;;;;;;;8.75;1.73;;;;;;;;;;5037444;28;20049;-76
2022/12/30 02:54:30;;;;;;;8.55;1.83;;;;;;;;;;5029710;28;20032;-75
2022/12/30 02:56:56;;;;;;;0.52;0.47;;;;;;;;;;5036780;28;20617;-75
2022/12/30 03:05:45;;;;;;;11.73;2.47;;;;;;;;;;5040855;28;20056;-76
2022/12/30 03:08:29;;;;;;;5.93;1.55;;;;;;;;;;5009904;28;20041;-75
2022/12/30 03:11:16;;;;;;;7.30;1.98;;;;;;;;;;5017507;28;20029;-75
2022/12/30 03:14:12;;;;;;;9.43;2.40;;;;;;;;;;5028630;28;20260;-76
2022/12/30 03:16:47;;;;;;;7.00;2.00;;;;;;;;;;5042503;28;20160;-75
2022/12/30 03:19:20;;;;;;;4.07;1.88;;;;;;;;;;5023983;28;20051;-75
2022/12/30 03:21:48;;;;;;;8.85;2.05;;;;;;;;;;5025488;28;20045;-76
2022/12/30 03:27:05;;;;;;;9.35;2.05;;;;;;;;;;5029996;28;20099;-75
2022/12/30 03:29:36;;;;;;;3.53;1.20;;;;;;;;;;5028851;28;20040;-75
2022/12/30 03:32:03;;;;;;;5.22;2.03;;;;;;;;;;5040559;28;20040;-76
2022/12/30 03:34:28;;;;;;;3.95;1.73;;;;;;;;;;5045324;28;20037;-76
2022/12/30 03:37:06;;;;;;;8.43;1.45;;;;;;;;;;5045979;28;20036;-76
2022/12/30 03:39:35;;;;;;;5.70;2.20;;;;;;;;;;5020147;28;20128;-76
2022/12/30 03:42:03;;;;;;;9.68;2.28;;;;;;;;;;5036797;28;20064;-75
2022/12/30 03:44:28;;;;;;;11.18;1.85;;;;;;;;;;5036659;28;20462;-76
2022/12/30 03:46:54;;;;;;;3.70;1.30;;;;;;;;;;5020320;28;20021;-76
2022/12/30 03:49:19;;;;;;;0.60;0.60;;;;;;;;;;5016895;28;20040;-76
2022/12/30 03:51:45;;;;;;;10.60;2.10;;;;;;;;;;5027503;28;20047;-75
2022/12/30 03:54:10;;;;;;;10.52;1.80;;;;;;;;;;5045278;28;20647;-75
2022/12/30 03:56:36;;;;;;;12.57;1.98;;;;;;;;;;5037027;28;20033;-75
2022/12/30 03:59:01;;;;;;;8.05;2.72;;;;;;;;;;5027038;28;20037;-76
2022/12/30 04:01:26;;;;;;;1.92;1.42;;;;;;;;;;5046303;28;20071;-76
2022/12/30 04:03:52;;;;;;;4.03;1.40;;;;;;;;;;5025947;28;20068;-76
2022/12/30 04:06:17;;;;;;;5.57;1.90;;;;;;;;;;5034119;28;20558;-76
2022/12/30 04:08:42;;;;;;;2.22;1.30;;;;;;;;;;5028284;28;20037;-76
2022/12/30 04:11:08;;;;;;;6.00;1.48;;;;;;;;;;5045190;28;20041;-76
2022/12/30 04:13:33;;;;;;;9.13;1.05;;;;;;;;;;5044506;28;20457;-76
2022/12/30 04:15:58;;;;;;;1.88;1.35;;;;;;;;;;5038023;28;20652;-75
2022/12/30 04:18:24;;;;;;;6.35;2.05;;;;;;;;;;5046149;28;20035;-76
2022/12/30 04:20:50;;;;;;;7.47;1.23;;;;;;;;;;5038202;28;20048;-76
2022/12/30 04:23:16;;;;;;;4.45;1.90;;;;;;;;;;5045099;28;20776;-76
2022/12/30 04:25:42;;;;;;;4.88;1.38;;;;;;;;;;5019592;28;20071;-76
2022/12/30 04:28:07;;;;;;;9.27;2.05;;;;;;;;;;5021015;28;20239;-75
2022/12/30 04:30:33;;;;;;;2.95;1.27;;;;;;;;;;5022465;28;20017;-76
2022/12/30 04:32:59;;;;;;;5.28;1.40;;;;;;;;;;5040064;28;20086;-76
2022/12/30 04:35:24;;;;;;;4.38;1.75;;;;;;;;;;5039855;28;20082;-75
2022/12/30 04:37:50;;;;;;;4.88;1.98;;;;;;;;;;5027315;28;20061;-75
2022/12/30 04:40:16;;;;;;;3.75;1.83;;;;;;;;;;5023654;28;20441;-76
2022/12/30 04:42:42;;;;;;;11.52;3.38;;;;;;;;;;5042429;28;20928;-76
2022/12/30 04:45:08;;;;;;;5.57;2.53;;;;;;;;;;5035207;28;20137;-76
2022/12/30 04:47:33;;;;;;;7.65;2.50;;;;;;;;;;5037692;28;20044;-75
2022/12/30 04:49:58;;;;;;;8.93;1.80;;;;;;;;;;5040136;28;20030;-76
2022/12/30 04:52:24;;;;;;;7.95;1.75;;;;;;;;;;5027797;28;20032;-75
2022/12/30 04:54:49;;;;;;;1.75;1.30;;;;;;;;;;5044940;28;20029;-75
2022/12/30 04:57:14;;;;;;;3.75;1.38;;;;;;;;;;5046509;28;20391;-76
2022/12/30 04:59:39;;;;;;;6.53;2.28;;;;;;;;;;5033308;28;20184;-76
2022/12/30 05:02:05;;;;;;;8.93;2.83;;;;;;;;;;5046119;28;20036;-76
2022/12/30 05:04:30;;;;;;;4.47;1.50;;;;;;;;;;5045035;28;20040;-75
2022/12/30 05:06:55;;;;;;;2.92;1.40;;;;;;;;;;5045608;28;20021;-75
2022/12/30 05:09:21;;;;;;;1.42;1.25;;;;;;;;;;5045389;28;20017;-75
2022/12/30 05:11:46;;;;;;;3.67;2.25;;;;;;;;;;5045756;28;20028;-76
2022/12/30 05:14:11;;;;;;;2.28;1.50;;;;;;;;;;5027359;28;20021;-75
2022/12/30 05:16:37;;;;;;;3.40;1.92;;;;;;;;;;5039876;28;20460;-76
2022/12/30 05:19:02;;;;;;;2.25;2.03;;;;;;;;;;5026230;28;20045;-75
2022/12/30 05:21:28;;;;;;;3.53;1.75;;;;;;;;;;5031123;28;20025;-76
2022/12/30 05:26:37;;;;;;;3.10;1.95;;;;;;;;;;5048794;28;20537;-76
2022/12/30 05:29:02;;;;;;;10.85;4.90;;;;;;;;;;5048265;28;20060;-76
2022/12/30 05:31:28;;;;;;;6.32;2.30;;;;;;;;;;5049116;28;20061;-76
2022/12/30 05:33:53;;;;;;;6.75;2.33;;;;;;;;;;5048109;28;20025;-76
2022/12/30 05:36:18;;;;;;;4.10;2.15;;;;;;;;;;5031721;28;20108;-76
2022/12/30 05:38:44;;;;;;;3.35;1.90;;;;;;;;;;5044561;28;20040;-76
2022/12/30 05:41:10;;;;;;;7.95;1.85;;;;;;;;;;5042000;28;20052;-76
2022/12/30 05:43:36;;;;;;;2.35;1.30;;;;;;;;;;5040828;28;20064;-75
2022/12/30 05:46:02;;;;;;;2.22;1.65;;;;;;;;;;5046809;28;20052;-75
2022/12/30 05:48:27;;;;;;;9.52;1.98;;;;;;;;;;5041672;28;20078;-76
2022/12/30 05:50:52;;;;;;;2.25;1.48;;;;;;;;;;5028066;28;21219;-75
2022/12/30 05:53:18;;;;;;;7.75;2.00;;;;;;;;;;5048321;28;20033;-75
2022/12/30 05:55:43;;;;;;;3.67;2.05;;;;;;;;;;5029171;28;20060;-75
2022/12/30 05:58:09;;;;;;;5.93;2.40;;;;;;;;;;5031706;28;20561;-76
2022/12/30 06:00:35;;;;;;;4.60;1.77;;;;;;;;;;5047094;28;20063;-75
2022/12/30 06:03:00;;;;;;;3.45;2.45;;;;;;;;;;5030656;28;20021;-76
2022/12/30 06:05:25;;;;;;;5.53;1.85;;;;;;;;;;5040270;28;20059;-76
2022/12/30 06:07:51;;;;;;;1.90;1.20;;;;;;;;;;5030445;28;20040;-76
2022/12/30 06:10:16;;;;;;;3.55;1.65;;;;;;;;;;5036925;28;20043;-76
2022/12/30 06:12:41;;;;;;;3.63;1.50;;;;;;;;;;5047593;28;20024;-76
2022/12/30 06:15:07;;;;;;;3.80;1.42;;;;;;;;;;5048867;28;20020;-76
2022/12/30 06:17:33;;;;;;;2.83;1.75;;;;;;;;;;5046585;28;20029;-76
2022/12/30 06:19:58;;;;;;;5.05;1.73;;;;;;;;;;5028431;28;20859;-75
2022/12/30 06:22:24;;;;;;;2.10;1.42;;;;;;;;;;5035268;28;20033;-76
2022/12/30 06:24:49;;;;;;;1.50;1.15;;;;;;;;;;5044636;28;20029;-76
2022/12/30 06:27:14;;;;;;;3.33;1.13;;;;;;;;;;5047629;28;20107;-75
2022/12/30 06:29:40;;;;;;;2.35;1.40;;;;;;;;;;5047215;28;20029;-75
2022/12/30 06:32:05;;;;;;;9.75;1.40;;;;;;;;;;5041647;28;20140;-76
2022/12/30 06:34:30;;;;;;;1.73;0.98;;;;;;;;;;5041755;28;20120;-76
2022/12/30 06:36:56;;;;;;;3.47;1.27;;;;;;;;;;5028256;28;20029;-76
2022/12/30 06:39:21;;;;;;;0.95;0.85;;;;;;;;;;5029020;28;20055;-76
2022/12/30 06:41:46;;;;;;;2.03;1.83;;;;;;;;;;5046985;28;20029;-75
2022/12/30 06:44:12;;;;;;;4.78;1.17;;;;;;;;;;5046880;28;20029;-76
2022/12/30 06:46:37;;;;;;;4.47;1.83;;;;;;;;;;5040967;28;20045;-76
2022/12/30 06:49:02;;;;;;;9.73;1.75;;;;;;;;;;5020164;28;20029;-76
2022/12/30 06:51:28;;;;;;;2.15;1.50;;;;;;;;;;5047329;28;20406;-76
2022/12/30 06:53:53;;;;;;;4.30;2.30;;;;;;;;;;5030158;28;20013;-76
2022/12/30 06:56:19;;;;;;;7.05;1.50;;;;;;;;;;5046355;28;20098;-75
2022/12/30 06:58:44;;;;;;;3.90;1.45;;;;;;;;;;5029311;28;20033;-76
2022/12/30 07:01:09;;;;;;;7.40;1.17;;;;;;;;;;5029251;28;20144;-76
2022/12/30 07:03:35;;;;;;;5.05;1.10;;;;;;;;;;5028159;28;20027;-78
2022/12/30 07:06:00;;;;;;;0.80;0.80;;;;;;;;;;5029416;28;20508;-78
2022/12/30 07:08:25;;;;;;;2.17;1.50;;;;;;;;;;5025067;28;20317;-78
2022/12/30 07:10:51;;;;;;;2.15;1.02;;;;;;;;;;5016654;28;20503;-77
2022/12/30 07:13:16;;;;;;;5.43;0.95;;;;;;;;;;5040914;28;20526;-79
2022/12/30 07:15:42;;;;;;;3.42;1.25;;;;;;;;;;5040211;28;20029;-79
2022/12/30 07:18:08;;;;;;;4.20;1.00;;;;;;;;;;5045346;28;20457;-78
2022/12/30 07:20:33;;;;;;;6.50;1.38;;;;;;;;;;5047037;28;20838;-79
2022/12/30 07:22:58;;;;;;;5.30;1.25;;;;;;;;;;5045780;28;20147;-79
2022/12/30 07:25:24;;;;;;;5.63;1.98;;;;;;;;;;5027489;28;20041;-79
2022/12/30 07:27:55;;;;;;;1.70;1.13;;;;;;;;;;5025926;28;20028;-79
2022/12/30 07:30:20;;;;;;;6.78;1.13;;;;;;;;;;5046192;28;20115;-78
2022/12/30 07:32:46;;;;;;;2.15;0.95;;;;;;;;;;5046311;28;20120;-79
2022/12/30 07:35:11;;;;;;;10.00;1.63;;;;;;;;;;5028866;28;20033;-79
2022/12/30 07:37:36;;;;;;;6.68;1.67;;;;;;;;;;5027949;28;20025;-79
2022/12/30 07:40:03;;;;;;;4.70;1.60;;;;;;;;;;5028926;28;20115;-78
2022/12/30 07:42:28;;;;;;;2.10;1.23;;;;;;;;;;5045787;28;20028;-78
2022/12/30 07:44:53;;;;;;;1.85;1.10;;;;;;;;;;5027827;28;20021;-79
2022/12/30 07:47:19;;;;;;;3.92;1.00;;;;;;;;;;5045900;28;20040;-79
2022/12/30 07:49:44;;;;;;;4.47;1.30;;;;;;;;;;5020012;28;20040;-78
2022/12/30 07:52:09;;;;;;;5.43;1.40;;;;;;;;;;5027628;28;20025;-79
2022/12/30 07:54:35;;;;;;;4.55;0.90;;;;;;;;;;5038221;28;20033;-78
2022/12/30 07:57:00;;;;;;;3.83;1.08;;;;;;;;;;5038846;28;20028;-79
2022/12/30 07:59:25;;;;;;;5.18;1.48;;;;;;;;;;5043963;28;20036;-79
2022/12/30 08:01:50;;;;;;;6.95;1.65;;;;;;;;;;5045210;28;20035;-79
2022/12/30 08:04:16;;;;;;;2.75;1.23;;;;;;;;;;5042556;28;20052;-79
2022/12/30 08:06:41;;;;;;;2.97;0.98;;;;;;;;;;5029160;28;20575;-79
2022/12/30 08:09:07;;;;;;;1.75;1.13;;;;;;;;;;5013516;28;20020;-79
2022/12/30 08:11:32;;;;;;;4.15;2.17;;;;;;;;;;5039593;28;20032;-79
2022/12/30 08:13:58;;;;;;;1.90;1.20;;;;;;;;;;5044032;28;20410;-79
2022/12/30 08:16:24;;;;;;;9.43;1.83;;;;;;;;;;5025774;28;20037;-79
2022/12/30 08:18:49;;;;;;;3.17;1.40;;;;;;;;;;5026244;28;20107;-78
2022/12/30 08:21:16;;;;;;;3.47;1.40;;;;;;;;;;5020236;28;20542;-78
2022/12/30 08:23:46;;;;;;;1.27;0.73;;;;;;;;;;5032306;28;20077;-77
2022/12/30 08:26:17;;;;;;;3.65;1.27;;;;;;;;;;5035518;28;20529;-78
2022/12/30 08:28:43;;;;;;;3.75;1.33;;;;;;;;;;5030174;28;20114;-79
2022/12/30 08:31:11;;;;;;;2.92;1.30;;;;;;;;;;5033571;28;20033;-79
2022/12/30 08:33:36;;;;;;;3.80;1.23;;;;;;;;;;5038759;28;20079;-79
2022/12/30 08:36:04;;;;;;;4.15;1.38;;;;;;;;;;5044530;28;20421;-79
2022/12/30 08:38:29;;;;;;;2.55;1.20;;;;;;;;;;5018261;28;21297;-79
2022/12/30 08:41:05;;;;;;;2.90;1.20;;;;;;;;;;5046562;28;20037;-79
2022/12/30 08:43:30;;;;;;;1.85;0.70;;;;;;;;;;5045312;28;20037;-79
2022/12/30 08:45:57;;;;;;;4.32;1.20;;;;;;;;;;5024596;28;20025;-79
2022/12/30 08:48:22;;;;;;;4.68;1.33;;;;;;;;;;5039222;28;20030;-78
2022/12/30 08:50:48;;;;;;;1.92;1.20;;;;;;;;;;5020562;28;20632;-79
2022/12/30 08:53:13;;;;;;;3.33;1.30;;;;;;;;;;5041300;28;20648;-79
2022/12/30 08:55:40;;;;;;;7.63;1.50;;;;;;;;;;5031811;28;20033;-78
2022/12/30 08:58:05;;;;;;;1.13;0.88;;;;;;;;;;5052031;28;20033;-79
2022/12/30 09:00:30;;;;;;;2.28;1.17;;;;;;;;;;5048515;28;20024;-79
2022/12/30 09:02:56;;;;;;;6.35;1.10;;;;;;;;;;5030582;28;20028;-79
2022/12/30 09:05:21;;;;;;;3.72;1.55;;;;;;;;;;5030984;28;20451;-79
2022/12/30 09:07:46;;;;;;;2.55;1.42;;;;;;;;;;5031046;28;20033;-79
2022/12/30 09:10:12;;;;;;;1.50;0.93;;;;;;;;;;5029691;28;20025;-79
2022/12/30 09:12:38;;;;;;;4.43;0.85;;;;;;;;;;5030034;28;20091;-79
2022/12/30 09:15:04;;;;;;;2.90;1.27;;;;;;;;;;5024975;28;20096;-79
2022/12/30 09:17:30;;;;;;;3.65;1.05;;;;;;;;;;5032917;28;20137;-79
2022/12/30 09:19:55;;;;;;;1.20;0.50;;;;;;;;;;5041667;28;20128;-80
2022/12/30 09:22:20;;;;;;;2.33;1.35;;;;;;;;;;5048420;28;20449;-79
2022/12/30 09:24:45;;;;;;;6.03;1.23;;;;;;;;;;5044680;28;20037;-78
2022/12/30 09:27:11;;;;;;;1.77;1.00;;;;;;;;;;5026777;28;20020;-78
2022/12/30 09:29:36;;;;;;;2.35;1.05;;;;;;;;;;5047928;28;20033;-78
2022/12/30 09:32:02;;;;;;;2.65;1.00;;;;;;;;;;5027015;28;20060;-79
2022/12/30 09:34:27;;;;;;;1.55;0.85;;;;;;;;;;5047354;28;20135;-79
2022/12/30 09:36:52;;;;;;;1.83;1.02;;;;;;;;;;5048606;28;20074;-79
2022/12/30 09:39:17;;;;;;;3.00;1.30;;;;;;;;;;5030566;28;20056;-79
2022/12/30 09:44:32;;;;;;;;;;;;;;;;;;5046273;28;20036;-79
2022/12/30 09:47:04;;;;;;;4.78;1.38;;;;;;;;;;5046720;28;19916;-79
2022/12/30 09:49:41;;;;;;;7.90;1.38;;;;;;;;;;5042179;28;20041;-79
2022/12/30 09:52:17;;;;;;;7.97;1.73;;;;;;;;;;5048637;28;20510;-79
2022/12/30 09:54:51;;;;;;;1.33;0.90;;;;;;;;;;5030661;28;20063;-78
2022/12/30 09:57:32;;;;;;;;;;;;;;;;;;5028478;28;20036;-80
2022/12/30 10:00:03;;;;;;;2.50;0.90;;;;;;;;;;5046708;28;19913;-79
2022/12/30 10:02:38;;;;;;;5.65;1.88;;;;;;;;;;5020765;28;20116;-79
2022/12/30 10:05:10;;;;;;;3.53;1.00;;;;;;;;;;5039606;28;20042;-80
2022/12/30 10:07:50;;;;;;;8.88;1.55;;;;;;;;;;5041650;28;20760;-80
2022/12/30 10:10:27;;;;;;;1.88;1.10;;;;;;;;;;5014597;28;20097;-77
2022/12/30 10:13:13;;;;;;;6.38;1.08;;;;;;;;;;5034808;28;20040;-79
2022/12/30 10:15:43;;;;;;;2.15;0.90;;;;;;;;;;5035266;28;20057;-79
2022/12/30 10:18:36;;;;;;;3.22;1.52;;;;;;;;;;5031592;28;20498;-79
2022/12/30 10:21:18;;;;;;;1.35;0.82;;;;;;;;;;5047905;28;20053;-79
2022/12/30 10:23:58;;;;;;;3.00;1.13;;;;;;;;;;5030473;28;20506;-80
2022/12/30 10:26:29;;;;;;;4.38;0.88;;;;;;;;;;5046774;28;20063;-80
2022/12/30 10:28:59;;;;;;;4.35;1.20;;;;;;;;;;5029111;28;20041;-80
2022/12/30 10:31:28;;;;;;;1.23;0.88;;;;;;;;;;5044255;28;20044;-80
2022/12/30 10:33:59;;;;;;;1.65;1.00;;;;;;;;;;5037453;28;20036;-80
2022/12/30 10:36:43;;;;;;;3.33;1.17;;;;;;;;;;5015162;28;20036;-80
2022/12/30 10:39:18;;;;;;;2.10;1.02;;;;;;;;;;5039002;28;20072;-81
2022/12/30 10:42:16;;;;;;;6.68;1.33;;;;;;;;;;5021143;28;20402;-81
2022/12/30 10:44:44;;;;;;;3.67;1.20;;;;;;;;;;5042244;28;20494;-81
2022/12/30 10:47:31;;;;;;;8.60;1.77;;;;;;;;;;5017652;28;20044;-80
2022/12/30 10:50:20;;;;;;;1.27;0.80;;;;;;;;;;5039231;28;20025;-81
2022/12/30 10:52:46;;;;;;;2.25;1.25;;;;;;;;;;5023681;28;20041;-79
2022/12/30 10:55:30;;;;;;;1.35;0.57;;;;;;;;;;5039148;28;20047;-79
2022/12/30 10:58:02;;;;;;;1.67;0.60;;;;;;;;;;5038691;28;20568;-79
2022/12/30 11:00:32;;;;;;;1.90;0.90;;;;;;;;;;5035055;28;20098;-78
2022/12/30 11:03:32;;;;;;;0.70;0.55;;;;;;;;;;5035673;28;20087;-79
2022/12/30 11:06:22;;;;;;;3.20;0.98;;;;;;;;;;5025090;28;20037;-79
2022/12/30 11:08:48;;;;;;;0.77;0.57;;;;;;;;;;5028748;28;20580;-79
2022/12/30 11:11:13;;;;;;;1.65;0.93;;;;;;;;;;5047008;28;20029;-79
2022/12/30 11:16:29;;;;;;;2.72;0.90;;;;;;;;;;5046426;28;20039;-79
2022/12/30 11:18:57;;;;;;;2.63;0.77;;;;;;;;;;5019723;28;20417;-80
2022/12/30 11:21:24;;;;;;;6.18;1.52;;;;;;;;;;5022690;28;20124;-78
2022/12/30 11:23:54;;;;;;;1.20;0.68;;;;;;;;;;5029269;28;20040;-80
2022/12/30 11:26:22;;;;;;;1.55;0.57;;;;;;;;;;5039673;28;20037;-80
2022/12/30 11:28:55;;;;;;;1.48;0.82;;;;;;;;;;5046519;28;20045;-81
2022/12/30 11:31:21;;;;;;;1.48;1.00;;;;;;;;;;5044233;28;20660;-79
2022/12/30 11:33:53;;;;;;;2.55;1.00;;;;;;;;;;5040527;28;20039;-79
2022/12/30 11:36:20;;;;;;;1.92;1.00;;;;;;;;;;5046090;28;20074;-81
2022/12/30 11:38:50;;;;;;;1.58;0.70;;;;;;;;;;5043326;28;20060;-81
2022/12/30 11:41:15;;;;;;;0.93;0.70;;;;;;;;;;5041634;28;20042;-81
2022/12/30 11:43:41;;;;;;;0.75;0.73;;;;;;;;;;5027918;28;20083;-81
2022/12/30 11:46:10;;;;;;;6.45;0.90;;;;;;;;;;5040000;28;20140;-81
2022/12/30 11:48:43;;;;;;;2.70;0.93;;;;;;;;;;5043748;28;20021;-80
2022/12/30 11:51:16;;;;;;;;;;;;;;;;;;5034783;28;20028;-79
2022/12/30 11:53:42;;;;;;;1.08;0.73;;;;;;;;;;5024969;28;19912;-80
2022/12/30 11:56:08;;;;;;;2.17;0.90;;;;;;;;;;5027680;28;20121;-80
2022/12/30 11:58:35;;;;;;;3.88;0.93;;;;;;;;;;5024222;28;20512;-80
2022/12/30 12:01:05;;;;;;;3.38;0.73;;;;;;;;;;5024311;28;20021;-81
2022/12/30 12:03:31;;;;;;;1.15;0.80;;;;;;;;;;5041665;28;20422;-80
2022/12/30 12:06:09;;;;;;;1.30;0.75;;;;;;;;;;5040544;28;20032;-80
2022/12/30 12:08:44;;;;;;;1.33;0.60;;;;;;;;;;5045293;28;20033;-80
2022/12/30 12:11:17;;;;;;;1.38;0.57;;;;;;;;;;5045824;28;20036;-80
2022/12/30 12:13:55;;;;;;;2.35;1.17;;;;;;;;;;5027266;28;20022;-80
2022/12/30 12:16:32;;;;;;;2.35;0.95;;;;;;;;;;5043488;28;20060;-80
2022/12/30 12:19:27;;;;;;;0.50;0.50;;;;;;;;;;5026852;28;20033;-81
2022/12/30 12:21:55;;;;;;;0.65;0.60;;;;;;;;;;5032242;28;20533;-80
2022/12/30 12:24:39;;;;;;;1.10;0.60;;;;;;;;;;5043414;28;20029;-80
2022/12/30 12:27:17;;;;;;;0.40;0.40;;;;;;;;;;5042195;28;20040;-79
2022/12/30 12:29:43;;;;;;;0.50;0.50;;;;;;;;;;5034749;28;20529;-80
2022/12/30 12:32:31;;;;;;;0.93;0.60;;;;;;;;;;5033403;28;20132;-80
2022/12/30 12:35:08;;;;;;;0.70;0.47;;;;;;;;;;5029969;28;20041;-79
2022/12/30 12:37:34;;;;;;;0.80;0.75;;;;;;;;;;5030793;28;20205;-79
2022/12/30 12:40:02;;;;;;;1.05;0.55;;;;;;;;;;5031853;28;20233;-79
2022/12/30 12:42:38;;;;;;;0.70;0.50;;;;;;;;;;5041506;28;20029;-79
2022/12/30 12:45:42;;;;;;;1.25;0.50;;;;;;;;;;5044090;28;20053;-80
2022/12/30 12:48:24;;;;;;;1.48;0.65;;;;;;;;;;5042740;28;20037;-80
2022/12/30 12:51:09;;;;;;;1.20;0.57;;;;;;;;;;5013766;28;20041;-80
2022/12/30 12:54:08;;;;;;;0.40;0.40;;;;;;;;;;5044540;28;20029;-79
2022/12/30 12:57:02;;;;;;;0.50;0.40;;;;;;;;;;5042861;28;20033;-80
2022/12/30 12:59:40;;;;;;;0.75;0.45;;;;;;;;;;5043885;28;20095;-81
2022/12/30 13:02:16;;;;;;;1.02;0.50;;;;;;;;;;5041823;28;20045;-80
2022/12/30 13:04:46;;;;;;;0.50;0.50;;;;;;;;;;5049674;28;20072;-82
2022/12/30 13:07:50;;;;;;;0.47;0.47;;;;;;;;;;5042984;28;20045;-82
2022/12/30 13:10:18;;;;;;;0.70;0.52;;;;;;;;;;5037815;28;20052;-81
2022/12/30 13:12:56;;;;;;;0.55;0.40;;;;;;;;;;5052018;28;20032;-80
2022/12/30 13:15:27;;;;;;;1.23;1.13;;;;;;;;;;5028006;28;20087;-81
2022/12/30 13:17:56;;;;;;;0.30;0.30;;;;;;;;;;5028359;28;20522;-79
2022/12/30 13:20:50;;;;;;;0.40;0.40;;;;;;;;;;5042034;28;20840;-81
2022/12/30 13:23:19;;;;;;;0.45;0.40;;;;;;;;;;5016806;28;20045;-81
2022/12/30 13:25:50;;;;;;;0.85;0.52;;;;;;;;;;5027168;28;20036;-81
2022/12/30 13:28:22;;;;;;;0.82;0.50;;;;;;;;;;5025066;28;20056;-81
2022/12/30 13:30:55;;;;;;;0.55;0.40;;;;;;;;;;5026569;28;20035;-81
2022/12/30 13:33:45;;;;;;;0.47;0.45;;;;;;;;;;5037417;28;20026;-81
2022/12/30 13:36:23;;;;;;;0.95;0.43;;;;;;;;;;5040315;28;20502;-81
2022/12/30 13:39:15;;;;;;;0.40;0.40;;;;;;;;;;5025488;28;20037;-81
2022/12/30 13:41:59;;;;;;;0.70;0.60;;;;;;;;;;5038430;28;20037;-81
2022/12/30 13:44:32;;;;;;;1.55;0.40;;;;;;;;;;5023682;28;20174;-81
2022/12/30 13:46:57;;;;;;;0.40;0.40;;;;;;;;;;5039465;28;20037;-81
2022/12/30 13:49:34;;;;;;;0.57;0.57;;;;;;;;;;5028658;28;20585;-81
2022/12/30 13:52:06;;;;;;;0.55;0.55;;;;;;;;;;5046573;28;20764;-81
2022/12/30 13:54:33;;;;;;;0.40;0.40;;;;;;;;;;5029375;28;20108;-81
2022/12/30 13:57:01;;;;;;;1.20;0.70;;;;;;;;;;5047377;28;20076;-80
2022/12/30 13:59:37;;;;;;;0.55;0.55;;;;;;;;;;5030901;28;20037;-80
2022/12/30 14:02:18;;;;;;;0.50;0.50;;;;;;;;;;5029132;28;20583;-80
2022/12/30 14:04:43;;;;;;;1.30;0.60;;;;;;;;;;5045593;28;20160;-80
2022/12/30 14:07:37;;;;;;;0.85;0.68;;;;;;;;;;5045803;28;20033;-80
2022/12/30 14:10:14;;;;;;;;;;;;;;;;;;5048019;28;20048;-81
2022/12/30 14:12:41;;;;;;;0.55;0.47;;;;;;;;;;5021416;28;19943;-80
2022/12/30 14:15:49;;;;;;;0.30;0.30;;;;;;;;;;5047818;28;20371;-81
2022/12/30 14:18:26;;;;;;;1.45;0.70;;;;;;;;;;5048085;28;20048;-80
2022/12/30 14:20:53;;;;;;;0.65;0.65;;;;;;;;;;5047534;28;20055;-81
2022/12/30 14:23:50;;;;;;;0.60;0.60;;;;;;;;;;5047182;28;20399;-80
2022/12/30 14:26:18;;;;;;;0.50;0.50;;;;;;;;;;5028808;28;20109;-80
2022/12/30 14:28:55;;;;;;;1.15;0.70;;;;;;;;;;5030488;28;20036;-81
2022/12/30 14:31:27;;;;;;;0.60;0.60;;;;;;;;;;5047363;28;20658;-81
2022/12/30 14:33:56;;;;;;;0.38;0.38;;;;;;;;;;5047774;28;20037;-80
2022/12/30 14:36:24;;;;;;;0.70;0.60;;;;;;;;;;5047637;28;20025;-81
2022/12/30 14:38:49;;;;;;;0.95;0.70;;;;;;;;;;5029815;28;20129;-80
2022/12/30 14:41:18;;;;;;;1.75;0.60;;;;;;;;;;5047539;28;20511;-80
2022/12/30 14:44:15;;;;;;;0.63;0.57;;;;;;;;;;5047399;28;20041;-80
2022/12/30 14:46:41;;;;;;;0.60;0.60;;;;;;;;;;4993158;28;20048;-80
2022/12/30 14:49:41;;;;;;;0.80;0.70;;;;;;;;;;5036694;28;20033;-81
2022/12/30 14:52:09;;;;;;;0.70;0.60;;;;;;;;;;5047460;28;20060;-81
2022/12/30 14:54:44;;;;;;;0.70;0.70;;;;;;;;;;5029023;28;20116;-81
2022/12/30 14:57:11;;;;;;;0.68;0.65;;;;;;;;;;5047289;28;20060;-80
2022/12/30 14:59:52;;;;;;;0.80;0.73;;;;;;;;;;5029751;28;20037;-81
2022/12/30 15:02:21;;;;;;;0.70;0.70;;;;;;;;;;5029285;28;20083;-80
2022/12/30 15:04:49;;;;;;;0.73;0.73;;;;;;;;;;5047534;28;20123;-81
2022/12/30 15:07:26;;;;;;;1.42;0.90;;;;;;;;;;5027863;28;20029;-80
2022/12/30 15:09:53;;;;;;;1.08;0.90;;;;;;;;;;5045997;28;20033;-80
2022/12/30 15:12:22;;;;;;;1.00;0.90;;;;;;;;;;5046516;28;20051;-81
2022/12/30 15:14:51;;;;;;;0.80;0.80;;;;;;;;;;5045781;28;20029;-79
2022/12/30 15:17:34;;;;;;;0.70;0.70;;;;;;;;;;5029131;28;20577;-80
2022/12/30 15:20:24;;;;;;;0.98;0.85;;;;;;;;;;5046513;28;20049;-80
2022/12/30 15:22:50;;;;;;;0.70;0.68;;;;;;;;;;5023304;28;20029;-81
2022/12/30 15:25:18;;;;;;;1.05;0.85;;;;;;;;;;5019080;28;20058;-80
2022/12/30 15:27:47;;;;;;;2.28;0.90;;;;;;;;;;5039271;28;20063;-78
2022/12/30 15:30:18;;;;;;;1.02;0.93;;;;;;;;;;5041145;28;20070;-81
2022/12/30 15:32:51;;;;;;;1.52;1.10;;;;;;;;;;5044860;28;20045;-78
2022/12/30 15:35:25;;;;;;;0.88;0.80;;;;;;;;;;5021033;28;20234;-78
2022/12/30 15:37:51;;;;;;;0.95;0.82;;;;;;;;;;5036424;28;20110;-79
2022/12/30 15:40:24;;;;;;;0.70;0.70;;;;;;;;;;5027493;28;20504;-79
2022/12/30 15:42:56;;;;;;;2.20;1.13;;;;;;;;;;5028069;28;20040;-78
2022/12/30 15:45:34;;;;;;;1.50;1.10;;;;;;;;;;5027855;28;20029;-79
2022/12/30 15:47:59;;;;;;;1.50;0.90;;;;;;;;;;5030102;28;20037;-79
2022/12/30 15:50:37;;;;;;;1.55;1.27;;;;;;;;;;5023287;28;20068;-79
2022/12/30 15:53:15;;;;;;;1.10;1.00;;;;;;;;;;5045923;28;20029;-79
2022/12/30 15:55:40;;;;;;;1.38;1.00;;;;;;;;;;5027409;28;20530;-79
2022/12/30 15:58:08;;;;;;;1.85;1.23;;;;;;;;;;5045218;28;20048;-80
2022/12/30 16:00:34;;;;;;;1.70;1.10;;;;;;;;;;5045382;28;20055;-79
2022/12/30 16:03:00;;;;;;;2.92;1.25;;;;;;;;;;5046517;28;20025;-79